createdAt,value
2023-06-17T00:00:58.855Z,5.40
2023-06-17T00:03:26.076Z,5.40
2023-06-17T00:05:53.435Z,5.47
2023-06-17T00:08:20.926Z,5.33
2023-06-17T00:10:48.317Z,5.60
2023-06-17T00:13:22.286Z,5.30
2023-06-17T00:15:57.904Z,5.80
2023-06-17T00:18:25.635Z,5.27
2023-06-17T00:20:54.055Z,5.47
2023-06-17T00:23:21.741Z,5.50
2023-06-17T00:25:49.837Z,5.40
2023-06-17T00:28:17.480Z,5.63
2023-06-17T00:30:47.943Z,5.20
2023-06-17T00:33:15.999Z,5.77
2023-06-17T00:35:43.232Z,5.70
2023-06-17T00:38:10.600Z,5.47
2023-06-17T00:40:37.800Z,5.37
2023-06-17T00:43:05.062Z,5.40
2023-06-17T00:45:39.761Z,5.27
2023-06-17T00:48:11.134Z,5.60
2023-06-17T00:50:38.650Z,5.80
2023-06-17T00:53:06.626Z,5.40
2023-06-17T00:55:34.583Z,5.57
2023-06-17T00:58:02.367Z,5.73
2023-06-17T01:00:29.678Z,5.53
2023-06-17T01:02:57.915Z,5.50
2023-06-17T01:05:25.946Z,5.43
2023-06-17T01:07:54.145Z,5.47
2023-06-17T01:10:21.685Z,5.20
2023-06-17T01:12:49.857Z,5.50
2023-06-17T01:15:17.736Z,5.60
2023-06-17T01:17:49.028Z,5.33
2023-06-17T01:20:16.972Z,5.50
2023-06-17T01:22:46.884Z,5.33
2023-06-17T01:25:14.450Z,5.23
2023-06-17T01:27:42.564Z,5.50
2023-06-17T01:30:10.161Z,5.40
2023-06-17T01:32:37.556Z,5.17
2023-06-17T01:35:07.454Z,5.20
2023-06-17T01:37:42.509Z,5.33
2023-06-17T01:40:12.539Z,5.40
2023-06-17T01:42:42.382Z,5.20
2023-06-17T01:45:09.945Z,5.50
2023-06-17T01:47:37.302Z,5.53
2023-06-17T01:50:05.372Z,6.00
2023-06-17T01:52:32.826Z,5.50
2023-06-17T01:55:00.531Z,5.60
2023-06-17T01:57:28.034Z,5.27
2023-06-17T01:59:55.949Z,5.67
2023-06-17T02:02:23.641Z,5.60
2023-06-17T02:04:52.008Z,5.60
2023-06-17T02:07:19.429Z,5.90
2023-06-17T02:09:47.676Z,6.20
2023-06-17T02:12:14.953Z,5.83
2023-06-17T02:14:42.113Z,5.43
2023-06-17T02:17:12.238Z,6.17
2023-06-17T02:19:40.793Z,5.80
2023-06-17T02:22:08.385Z,5.80
2023-06-17T02:24:35.642Z,5.87
2023-06-17T02:27:02.863Z,5.67
2023-06-17T02:29:30.060Z,5.70
2023-06-17T02:31:58.000Z,5.73
2023-06-17T02:34:25.182Z,6.10
2023-06-17T02:36:52.398Z,5.47
2023-06-17T02:39:19.682Z,5.80
2023-06-17T02:41:46.861Z,5.73
2023-06-17T02:44:14.037Z,5.40
2023-06-17T02:46:41.389Z,5.60
2023-06-17T02:49:08.619Z,5.43
2023-06-17T02:51:35.870Z,5.63
2023-06-17T02:54:03.074Z,5.50
2023-06-17T02:56:30.280Z,6.50
2023-06-17T02:58:57.440Z,5.80
2023-06-17T03:01:24.790Z,5.97
2023-06-17T03:03:56.036Z,6.00
2023-06-17T03:06:24.231Z,5.97
2023-06-17T03:08:51.707Z,5.73
2023-06-17T03:11:18.938Z,6.03
2023-06-17T03:13:46.618Z,6.30
2023-06-17T03:16:13.945Z,5.80
2023-06-17T03:18:41.202Z,6.10
2023-06-17T03:21:08.417Z,5.87
2023-06-17T03:23:35.587Z,5.37
2023-06-17T03:26:03.709Z,5.87
2023-06-17T03:28:30.855Z,6.27
2023-06-17T03:30:58.418Z,6.07
2023-06-17T03:33:25.852Z,5.90
2023-06-17T03:35:52.996Z,6.00
2023-06-17T03:38:20.994Z,6.23
2023-06-17T03:40:48.194Z,5.80
2023-06-17T03:43:15.438Z,5.80
2023-06-17T03:45:42.715Z,6.20
2023-06-17T03:48:09.993Z,6.07
2023-06-17T03:50:37.181Z,6.27
2023-06-17T03:53:04.402Z,6.00
2023-06-17T03:55:32.420Z,5.97
2023-06-17T03:58:01.197Z,5.90
2023-06-17T04:00:28.419Z,5.80
2023-06-17T04:02:55.876Z,5.80
2023-06-17T04:05:23.109Z,6.00
2023-06-17T04:07:50.325Z,5.87
2023-06-17T04:10:17.475Z,5.80
2023-06-17T04:12:44.701Z,6.00
2023-06-17T04:15:11.893Z,5.93
2023-06-17T04:17:39.417Z,6.30
2023-06-17T04:20:11.876Z,5.83
2023-06-17T04:22:42.696Z,6.03
2023-06-17T04:25:13.374Z,6.20
2023-06-17T04:27:40.878Z,5.63
2023-06-17T04:30:11.785Z,6.17
2023-06-17T04:32:43.704Z,5.97
2023-06-17T04:35:12.092Z,6.07
2023-06-17T04:37:39.424Z,5.70
2023-06-17T04:40:13.085Z,5.90
2023-06-17T04:42:41.889Z,6.13
2023-06-17T04:45:10.161Z,5.90
2023-06-17T04:47:37.587Z,5.93
2023-06-17T04:50:05.106Z,5.82
2023-06-17T04:52:32.606Z,6.38
2023-06-17T04:55:00.793Z,5.77
2023-06-17T04:57:27.984Z,5.82
2023-06-17T04:59:55.360Z,6.10
2023-06-17T05:02:22.941Z,6.18
2023-06-17T05:04:50.173Z,6.25
2023-06-17T05:07:17.347Z,6.50
2023-06-17T05:09:44.549Z,6.95
2023-06-17T05:12:12.564Z,7.05
2023-06-17T05:14:39.781Z,6.70
2023-06-17T05:17:07.330Z,6.38
2023-06-17T05:19:34.551Z,6.63
2023-06-17T05:22:01.765Z,7.50
2023-06-17T05:24:29.193Z,6.18
2023-06-17T05:26:56.448Z,6.70
2023-06-17T05:29:23.823Z,6.80
2023-06-17T05:31:51.027Z,6.60
2023-06-17T05:34:18.202Z,6.30
2023-06-17T05:36:45.434Z,6.13
2023-06-17T05:39:12.623Z,6.63
2023-06-17T05:41:39.787Z,6.38
2023-06-17T05:44:07.017Z,6.13
2023-06-17T05:46:34.269Z,6.28
2023-06-17T05:49:01.563Z,6.60
2023-06-17T05:51:29.332Z,6.57
2023-06-17T05:53:56.523Z,6.05
2023-06-17T05:56:23.709Z,6.45
2023-06-17T05:58:51.516Z,6.60
2023-06-17T06:01:18.777Z,6.18
2023-06-17T06:03:46.181Z,6.35
2023-06-17T06:06:13.422Z,6.32
2023-06-17T06:08:40.688Z,6.13
2023-06-17T06:11:07.851Z,5.93
2023-06-17T06:13:35.052Z,6.45
2023-06-17T06:16:02.274Z,6.15
2023-06-17T06:18:29.603Z,6.05
2023-06-17T06:20:56.808Z,6.10
2023-06-17T06:23:23.995Z,6.15
2023-06-17T06:25:51.238Z,6.20
2023-06-17T06:28:18.445Z,6.20
2023-06-17T06:30:45.676Z,6.38
2023-06-17T06:33:13.119Z,6.47
2023-06-17T06:35:40.283Z,6.70
2023-06-17T06:38:07.513Z,6.43
2023-06-17T06:40:34.809Z,6.10
2023-06-17T06:43:02.018Z,6.50
2023-06-17T06:45:29.314Z,6.45
2023-06-17T06:47:57.165Z,6.18
2023-06-17T06:50:24.516Z,6.10
2023-06-17T06:52:51.739Z,6.60
2023-06-17T06:55:18.978Z,6.07
2023-06-17T06:57:46.214Z,7.05
2023-06-17T07:00:13.768Z,6.45
2023-06-17T07:02:41.060Z,6.45
2023-06-17T07:05:08.579Z,5.90
2023-06-17T07:07:36.100Z,6.07
2023-06-17T07:10:03.298Z,5.90
2023-06-17T07:12:30.538Z,6.32
2023-06-17T07:14:57.874Z,6.50
2023-06-17T07:17:25.088Z,6.82
2023-06-17T07:19:52.351Z,6.65
2023-06-17T07:22:19.541Z,6.63
2023-06-17T07:24:46.772Z,6.60
2023-06-17T07:27:14.052Z,7.35
2023-06-17T07:29:41.534Z,6.45
2023-06-17T07:32:08.805Z,7.00
2023-06-17T07:34:36.341Z,7.03
2023-06-17T07:37:03.801Z,6.85
2023-06-17T07:39:31.140Z,7.10
2023-06-17T07:41:58.359Z,6.78
2023-06-17T07:44:25.728Z,7.38
2023-06-17T07:46:53.072Z,7.20
2023-06-17T07:49:20.332Z,6.30
2023-06-17T07:51:47.673Z,7.00
2023-06-17T07:54:16.767Z,7.22
2023-06-17T07:56:44.116Z,6.65
2023-06-17T07:59:11.345Z,7.07
2023-06-17T08:01:40.277Z,6.50
2023-06-17T08:04:07.632Z,6.43
2023-06-17T08:06:35.099Z,7.05
2023-06-17T08:09:02.411Z,6.43
2023-06-17T08:11:30.265Z,6.28
2023-06-17T08:13:57.415Z,5.78
2023-06-17T08:16:24.664Z,6.05
2023-06-17T08:18:51.920Z,6.68
2023-06-17T08:21:19.186Z,6.93
2023-06-17T08:23:46.422Z,6.03
2023-06-17T08:26:13.716Z,6.30
2023-06-17T08:28:40.896Z,6.43
2023-06-17T08:31:08.064Z,6.55
2023-06-17T08:33:35.656Z,6.60
2023-06-17T08:36:02.836Z,6.32
2023-06-17T08:38:30.016Z,6.35
2023-06-17T08:40:57.330Z,5.75
2023-06-17T08:43:26.332Z,5.85
2023-06-17T08:45:55.067Z,5.32
2023-06-17T08:48:22.359Z,5.50
2023-06-17T08:50:50.324Z,5.60
2023-06-17T08:53:17.606Z,5.97
2023-06-17T08:55:44.837Z,5.40
2023-06-17T08:58:12.076Z,6.22
2023-06-17T09:00:39.325Z,5.65
2023-06-17T09:03:10.048Z,5.22
2023-06-17T09:05:37.442Z,5.78
2023-06-17T09:08:04.766Z,5.97
2023-06-17T09:10:42.560Z,5.28
2023-06-17T09:13:09.839Z,5.20
2023-06-17T09:15:40.436Z,5.30
2023-06-17T09:18:09.074Z,5.68
2023-06-17T09:20:36.364Z,5.65
2023-06-17T09:23:03.737Z,5.22
2023-06-17T09:25:36.111Z,5.68
2023-06-17T09:28:16.279Z,5.80
2023-06-17T09:30:44.862Z,5.63
2023-06-17T09:33:19.352Z,5.40
2023-06-17T09:35:48.059Z,5.38
2023-06-17T09:38:18.680Z,5.13
2023-06-17T09:40:49.954Z,5.13
2023-06-17T09:43:27.586Z,5.50
2023-06-17T09:46:06.128Z,5.50
2023-06-17T09:48:34.237Z,5.18
2023-06-17T09:51:01.616Z,5.50
2023-06-17T09:53:30.375Z,5.43
2023-06-17T09:55:58.752Z,5.78
2023-06-17T09:58:33.104Z,5.55
2023-06-17T10:01:01.785Z,5.28
2023-06-17T10:03:29.454Z,5.45
2023-06-17T10:05:58.940Z,5.20
2023-06-17T10:08:26.387Z,5.22
2023-06-17T10:10:54.445Z,5.15
2023-06-17T10:13:23.396Z,4.93
2023-06-17T10:15:50.980Z,5.47
2023-06-17T10:18:19.108Z,5.28
2023-06-17T10:20:47.081Z,4.93
2023-06-17T10:23:14.537Z,4.60
2023-06-17T10:25:41.790Z,4.60
2023-06-17T10:28:09.118Z,5.10
2023-06-17T10:30:38.715Z,4.60
2023-06-17T10:33:06.003Z,4.70
2023-06-17T10:35:40.324Z,4.70
2023-06-17T10:38:09.317Z,5.13
2023-06-17T10:40:41.174Z,4.90
2023-06-17T10:43:08.319Z,4.60
2023-06-17T10:45:49.548Z,4.40
2023-06-17T10:48:23.939Z,4.30
2023-06-17T10:50:55.794Z,4.68
2023-06-17T10:53:26.543Z,4.50
2023-06-17T10:55:53.894Z,4.25
2023-06-17T10:58:21.135Z,4.70
2023-06-17T11:00:48.320Z,4.68
2023-06-17T11:03:16.961Z,4.80
2023-06-17T11:05:44.428Z,4.75
2023-06-17T11:08:12.659Z,4.95
2023-06-17T11:10:39.933Z,4.80
2023-06-17T11:13:07.108Z,5.00
2023-06-17T11:15:34.273Z,4.82
2023-06-17T11:18:02.359Z,5.00
2023-06-17T11:20:34.868Z,4.97
2023-06-17T11:23:02.055Z,4.70
2023-06-17T11:25:40.299Z,4.90
2023-06-17T11:28:12.773Z,4.57
2023-06-17T11:30:42.131Z,4.97
2023-06-17T11:33:10.187Z,4.90
2023-06-17T11:35:38.463Z,5.82
2023-06-17T11:38:06.247Z,5.43
2023-06-17T11:40:33.463Z,5.80
2023-06-17T11:43:01.804Z,5.80
2023-06-17T11:45:31.307Z,6.47
2023-06-17T11:47:58.732Z,5.63
2023-06-17T11:50:30.276Z,5.40
2023-06-17T11:52:57.869Z,5.82
2023-06-17T11:55:35.118Z,6.00
2023-06-17T11:58:06.290Z,5.78
2023-06-17T12:00:36.907Z,5.70
2023-06-17T12:03:05.042Z,5.70
2023-06-17T12:05:33.426Z,5.82
2023-06-17T12:08:01.287Z,5.93
2023-06-17T12:10:28.786Z,5.65
2023-06-17T12:13:00.062Z,5.97
2023-06-17T12:18:10.639Z,5.93
2023-06-17T12:20:38.316Z,5.40
2023-06-17T12:23:05.940Z,5.72
2023-06-17T12:25:36.938Z,5.45
2023-06-17T12:28:04.436Z,5.38
2023-06-17T12:30:34.852Z,5.60
2023-06-17T12:33:02.134Z,5.90
2023-06-17T12:35:29.336Z,5.95
2023-06-17T12:37:56.651Z,5.75
2023-06-17T12:40:23.924Z,5.60
2023-06-17T12:42:51.184Z,5.32
2023-06-17T12:45:18.743Z,5.50
2023-06-17T12:47:46.355Z,5.53
2023-06-17T12:50:13.762Z,6.10
2023-06-17T12:52:42.639Z,6.00
2023-06-17T12:55:10.031Z,5.57
2023-06-17T12:57:37.613Z,5.78
2023-06-17T13:00:06.161Z,5.57
2023-06-17T13:02:36.784Z,5.95
2023-06-17T13:05:04.255Z,5.43
2023-06-17T13:07:32.048Z,5.70
2023-06-17T13:09:59.255Z,5.93
2023-06-17T13:12:26.459Z,5.75
2023-06-17T13:14:53.717Z,5.90
2023-06-17T13:17:21.008Z,5.53
2023-06-17T13:19:48.160Z,5.28
2023-06-17T13:22:15.312Z,5.40
2023-06-17T13:24:42.497Z,5.95
2023-06-17T13:27:10.406Z,5.65
2023-06-17T13:29:37.626Z,5.55
2023-06-17T13:32:05.245Z,5.38
2023-06-17T13:34:32.463Z,5.28
2023-06-17T13:36:59.698Z,5.32
2023-06-17T13:39:26.990Z,5.47
2023-06-17T13:41:54.179Z,5.82
2023-06-17T13:44:21.456Z,5.30
2023-06-17T13:46:48.712Z,5.47
2023-06-17T13:49:16.149Z,5.10
2023-06-17T13:51:43.307Z,5.40
2023-06-17T13:54:11.902Z,5.32
2023-06-17T13:56:39.262Z,5.80
2023-06-17T13:59:06.568Z,5.55
2023-06-17T14:01:33.854Z,5.72
2023-06-17T14:04:01.538Z,5.43
2023-06-17T14:06:28.851Z,5.65
2023-06-17T14:08:56.498Z,6.05
2023-06-17T14:11:23.812Z,5.63
2023-06-17T14:13:51.417Z,5.78
2023-06-17T14:16:19.029Z,5.80
2023-06-17T14:18:46.373Z,5.70
2023-06-17T14:21:22.723Z,5.90
2023-06-17T14:24:05.248Z,5.63
2023-06-17T14:26:34.028Z,5.65
2023-06-17T14:29:01.418Z,5.40
2023-06-17T14:31:28.830Z,5.40
2023-06-17T14:33:56.080Z,5.25
2023-06-17T14:36:23.923Z,5.20
2023-06-17T14:38:51.497Z,5.35
2023-06-17T14:41:18.834Z,5.20
2023-06-17T14:43:46.090Z,5.32
2023-06-17T14:46:14.852Z,5.85
2023-06-17T14:48:42.351Z,5.70
2023-06-17T14:51:10.487Z,5.47
2023-06-17T14:53:41.406Z,5.55
2023-06-17T14:56:29.229Z,5.90
2023-06-17T14:58:57.157Z,5.63
2023-06-17T15:01:24.767Z,5.20
2023-06-17T15:03:52.322Z,5.45
2023-06-17T15:06:19.801Z,5.60
2023-06-17T15:08:46.998Z,5.90
2023-06-17T15:11:14.222Z,5.80
2023-06-17T15:13:41.423Z,5.38
2023-06-17T15:16:08.651Z,4.97
2023-06-17T15:18:39.577Z,5.78
2023-06-17T15:21:06.755Z,5.10
2023-06-17T15:23:33.962Z,5.10
2023-06-17T15:26:01.528Z,5.25
2023-06-17T15:28:28.691Z,5.72
2023-06-17T15:30:55.859Z,5.35
2023-06-17T15:33:24.094Z,5.43
2023-06-17T15:35:51.277Z,4.90
2023-06-17T15:38:18.433Z,5.63
2023-06-17T15:40:45.883Z,5.32
2023-06-17T15:43:13.064Z,5.70
2023-06-17T15:45:40.429Z,5.22
2023-06-17T15:48:07.746Z,5.30
2023-06-17T15:50:34.977Z,5.28
2023-06-17T15:53:02.204Z,5.15
2023-06-17T15:55:29.376Z,5.22
2023-06-17T15:57:56.897Z,5.25
2023-06-17T16:00:24.340Z,4.90
2023-06-17T16:02:51.691Z,5.00
2023-06-17T16:05:18.969Z,4.97
2023-06-17T16:07:46.189Z,4.97
2023-06-17T16:10:13.416Z,4.80
2023-06-17T16:12:41.905Z,5.05
2023-06-17T16:15:09.376Z,5.60
2023-06-17T16:17:36.729Z,5.00
2023-06-17T16:20:05.167Z,5.32
2023-06-17T16:22:32.425Z,5.30
2023-06-17T16:24:59.636Z,5.15
2023-06-17T16:27:26.991Z,5.15
2023-06-17T16:29:54.749Z,5.70
2023-06-17T16:32:22.126Z,5.50
2023-06-17T16:34:49.324Z,5.18
2023-06-17T16:37:16.838Z,5.35
2023-06-17T16:39:44.020Z,5.45
2023-06-17T16:42:12.504Z,5.47
2023-06-17T16:44:39.686Z,5.82
2023-06-17T16:47:07.063Z,5.30
2023-06-17T16:49:34.324Z,5.82
2023-06-17T16:52:02.261Z,5.75
2023-06-17T16:54:29.477Z,5.90
2023-06-17T16:56:57.279Z,6.28
2023-06-17T16:59:24.570Z,6.10
2023-06-17T17:01:51.869Z,6.38
2023-06-17T17:04:19.061Z,5.68
2023-06-17T17:06:46.295Z,5.95
2023-06-17T17:09:13.489Z,5.60
2023-06-17T17:11:40.924Z,5.80
2023-06-17T17:14:09.333Z,5.80
2023-06-17T17:16:36.607Z,5.60
2023-06-17T17:19:05.646Z,6.05
2023-06-17T17:21:32.837Z,6.07
2023-06-17T17:24:00.097Z,6.15
2023-06-17T17:26:27.703Z,5.97
2023-06-17T17:28:54.936Z,6.03
2023-06-17T17:31:22.134Z,6.57
2023-06-17T17:33:50.925Z,6.88
2023-06-17T17:36:18.631Z,7.80
2023-06-17T17:38:46.219Z,7.03
2023-06-17T17:41:13.425Z,7.53
2023-06-17T17:43:40.694Z,8.10
2023-06-17T17:46:12.345Z,8.00
2023-06-17T17:48:39.881Z,9.10
2023-06-17T17:51:07.078Z,8.77
2023-06-17T17:53:37.202Z,8.88
2023-06-17T17:56:04.712Z,8.13
2023-06-17T17:58:32.798Z,8.27
2023-06-17T18:01:02.477Z,7.95
2023-06-17T18:03:30.060Z,8.68
2023-06-17T18:05:57.592Z,8.90
2023-06-17T18:08:25.739Z,8.18
2023-06-17T18:10:53.046Z,7.20
2023-06-17T18:13:20.399Z,8.38
2023-06-17T18:15:47.646Z,7.68
2023-06-17T18:18:14.900Z,7.93
2023-06-17T18:20:42.085Z,7.55
2023-06-17T18:23:09.292Z,8.10
2023-06-17T18:25:36.587Z,6.95
2023-06-17T18:28:03.779Z,7.38
2023-06-17T18:30:31.398Z,7.68
2023-06-17T18:32:58.590Z,7.35
2023-06-17T18:35:25.912Z,7.57
2023-06-17T18:37:53.221Z,7.60
2023-06-17T18:40:20.845Z,7.05
2023-06-17T18:42:48.321Z,7.07
2023-06-17T18:45:15.616Z,7.53
2023-06-17T18:47:42.888Z,7.13
2023-06-17T18:50:10.425Z,6.90
2023-06-17T18:52:37.635Z,6.60
2023-06-17T18:55:05.042Z,6.55
2023-06-17T18:57:32.536Z,6.40
2023-06-17T18:59:59.816Z,6.07
2023-06-17T19:02:27.940Z,6.13
2023-06-17T19:04:55.405Z,6.00
2023-06-17T19:07:22.603Z,6.63
2023-06-17T19:09:51.210Z,6.47
2023-06-17T19:12:18.512Z,6.15
2023-06-17T19:14:45.732Z,6.57
2023-06-17T19:17:13.089Z,6.47
2023-06-17T19:19:40.337Z,6.80
2023-06-17T19:22:07.548Z,6.57
2023-06-17T19:24:34.835Z,7.07
2023-06-17T19:27:02.087Z,7.43
2023-06-17T19:29:29.254Z,6.60
2023-06-17T19:31:56.849Z,6.63
2023-06-17T19:34:24.115Z,7.55
2023-06-17T19:36:51.329Z,6.72
2023-06-17T19:39:18.535Z,6.77
2023-06-17T19:41:45.821Z,6.73
2023-06-17T19:44:13.026Z,6.20
2023-06-17T19:46:40.852Z,6.50
2023-06-17T19:49:08.339Z,5.50
2023-06-17T19:51:35.590Z,5.00
2023-06-17T19:54:02.804Z,5.27
2023-06-17T19:56:30.055Z,5.10
2023-06-17T19:58:57.256Z,4.90
2023-06-17T20:01:27.080Z,4.80
2023-06-17T20:03:54.400Z,4.47
2023-06-17T20:06:21.963Z,4.83
2023-06-17T20:08:50.409Z,4.33
2023-06-17T20:11:17.643Z,4.53
2023-06-17T20:13:44.881Z,4.20
2023-06-17T20:16:12.812Z,4.30
2023-06-17T20:18:40.050Z,4.30
2023-06-17T20:21:07.224Z,4.07
2023-06-17T20:23:34.586Z,4.13
2023-06-17T20:26:01.819Z,4.20
2023-06-17T20:28:29.392Z,3.70
2023-06-17T20:30:56.830Z,4.13
2023-06-17T20:33:24.846Z,3.33
2023-06-17T20:35:54.892Z,3.50
2023-06-17T20:38:22.612Z,3.53
2023-06-17T20:40:49.992Z,3.80
2023-06-17T20:43:17.465Z,3.60
2023-06-17T20:45:44.819Z,3.67
2023-06-17T20:48:12.011Z,3.87
2023-06-17T20:50:39.193Z,3.87
2023-06-17T20:53:06.394Z,3.90
2023-06-17T20:55:35.621Z,3.90
2023-06-17T20:58:02.958Z,3.50
2023-06-17T21:00:30.307Z,3.50
2023-06-17T21:02:57.719Z,3.83
2023-06-17T21:05:24.951Z,3.90
2023-06-17T21:07:52.109Z,3.60
2023-06-17T21:10:19.589Z,3.50
2023-06-17T21:12:46.906Z,3.60
2023-06-17T21:15:14.181Z,3.53
2023-06-17T21:17:41.426Z,3.90
2023-06-17T21:20:09.968Z,3.70
2023-06-17T21:22:37.426Z,3.33
2023-06-17T21:25:04.632Z,3.83
2023-06-17T21:27:31.836Z,3.67
2023-06-17T21:29:59.046Z,3.70
2023-06-17T21:32:26.269Z,3.60
2023-06-17T21:34:53.516Z,3.60
2023-06-17T21:37:20.690Z,3.93
2023-06-17T21:39:48.281Z,3.50
2023-06-17T21:42:15.463Z,3.83
2023-06-17T21:44:42.657Z,3.40
2023-06-17T21:47:09.849Z,3.30
2023-06-17T21:49:37.407Z,3.80
2023-06-17T21:52:05.282Z,3.53
2023-06-17T21:54:33.290Z,3.57
2023-06-17T21:57:00.550Z,3.63
2023-06-17T21:59:27.724Z,3.70
2023-06-17T22:01:55.022Z,3.93
2023-06-17T22:04:22.294Z,3.90
2023-06-17T22:06:49.487Z,3.50
2023-06-17T22:09:16.699Z,3.80
2023-06-17T22:11:43.990Z,3.70
2023-06-17T22:14:11.259Z,3.80
2023-06-17T22:16:39.360Z,4.00
2023-06-17T22:19:06.616Z,3.90
2023-06-17T22:21:33.844Z,3.80
2023-06-17T22:24:01.103Z,4.07
2023-06-17T22:26:28.729Z,3.87
2023-06-17T22:28:55.958Z,3.97
2023-06-17T22:31:23.136Z,3.80
2023-06-17T22:33:50.381Z,3.97
2023-06-17T22:36:17.625Z,3.90
2023-06-17T22:38:44.820Z,3.70
2023-06-17T22:41:12.014Z,3.80
2023-06-17T22:43:39.199Z,4.00
2023-06-17T22:46:08.167Z,4.20
2023-06-17T22:48:35.694Z,4.10
2023-06-17T22:51:03.107Z,3.60
2023-06-17T22:53:30.497Z,4.50
2023-06-17T22:55:57.711Z,4.20
2023-06-17T22:58:25.020Z,3.90
2023-06-17T23:00:52.777Z,3.97
2023-06-17T23:03:20.328Z,4.10
2023-06-17T23:05:47.528Z,4.10
2023-06-17T23:08:14.690Z,3.93
2023-06-17T23:10:42.737Z,4.40
2023-06-17T23:13:09.958Z,4.30
2023-06-17T23:15:40.191Z,3.90
2023-06-17T23:18:07.513Z,3.90
2023-06-17T23:20:35.032Z,4.03
2023-06-17T23:23:06.411Z,3.70
2023-06-17T23:25:33.764Z,4.17
2023-06-17T23:28:01.044Z,4.10
2023-06-17T23:30:28.761Z,4.20
2023-06-17T23:32:56.249Z,3.80
2023-06-17T23:35:23.466Z,4.03
2023-06-17T23:37:51.273Z,3.87
2023-06-17T23:40:18.716Z,4.53
2023-06-17T23:42:45.982Z,4.07
2023-06-17T23:45:13.285Z,4.10
2023-06-17T23:47:41.081Z,4.40
2023-06-17T23:50:08.504Z,4.03
2023-06-17T23:52:35.731Z,4.07
2023-06-17T23:55:02.932Z,3.70
2023-06-17T23:57:30.367Z,4.37
2023-06-17T23:59:57.541Z,4.40
